Time;durP1;ratioP1;P1;durP2;ratioP2;P2;SDS_P1;SDS_P2;PMS_P1;PMS_P2;Temp;Humidity;BMP_temperature;BMP_pressure;BME280_temperature;BME280_humidity;BME280_pressure;Samples;Min_cycle;Max_cycle;Signal;HPM_P1;HPM_P2
2023/12/06 00:00:38;;;;;;;65.27;40.13;;;1.20;99.90;;;;;;5084622;28;20098;-86
2023/12/06 00:03:04;;;;;;;69.60;39.83;;;1.40;99.90;;;;;;5037931;28;20143;-86
2023/12/06 00:05:31;;;;;;;62.00;37.43;;;0.80;99.90;;;;;;5070816;28;20079;-86
2023/12/06 00:07:57;;;;;;;70.95;42.42;;;0.60;99.90;;;;;;5072781;28;20045;-85
2023/12/06 00:10:22;;;;;;;65.83;39.03;;;0.10;99.90;;;;;;5041441;28;20040;-86
2023/12/06 00:12:48;;;;;;;69.90;40.50;;;1.00;99.90;;;;;;5058340;28;20041;-86
2023/12/06 00:15:15;;;;;;;68.90;42.27;;;0.10;99.90;;;;;;5043240;28;20076;-87
2023/12/06 00:17:41;;;;;;;68.72;41.15;;;0.10;99.90;;;;;;5042573;28;20127;-86
2023/12/06 00:20:07;;;;;;;71.88;43.95;;;0.20;99.90;;;;;;5062747;28;20040;-86
2023/12/06 00:22:33;;;;;;;70.15;42.92;;;0.10;99.90;;;;;;5078053;28;20048;-85
2023/12/06 00:24:59;;;;;;;78.53;45.73;;;1.60;99.90;;;;;;5078424;28;20390;-86
2023/12/06 00:27:25;;;;;;;69.43;43.17;;;1.30;99.90;;;;;;5061427;28;20475;-86
2023/12/06 00:29:50;;;;;;;77.03;45.27;;;0.90;99.90;;;;;;5095198;28;20051;-86
2023/12/06 00:32:16;;;;;;;73.30;44.23;;;0.20;99.90;;;;;;5077832;28;20396;-87
2023/12/06 00:34:42;;;;;;;77.37;44.57;;;0.20;99.90;;;;;;5078503;28;20074;-86
2023/12/06 00:37:07;;;;;;;77.77;44.83;;;0.20;99.90;;;;;;5061420;28;20079;-86
2023/12/06 00:39:33;;;;;;;82.30;46.33;;;1.00;99.90;;;;;;5077596;28;20051;-86
2023/12/06 00:41:59;;;;;;;72.20;43.57;;;0.20;99.90;;;;;;5078194;28;20492;-86
2023/12/06 00:44:25;;;;;;;78.77;44.63;;;1.00;99.90;;;;;;5077728;28;20089;-86
2023/12/06 00:46:50;;;;;;;74.33;44.90;;;1.70;99.90;;;;;;5094975;28;20048;-86
2023/12/06 00:49:19;;;;;;;84.10;48.40;;;1.70;99.90;;;;;;5094760;28;20521;-87
2023/12/06 00:51:45;;;;;;;77.40;45.45;;;1.60;99.90;;;;;;5078098;28;20441;-86
2023/12/06 00:54:11;;;;;;;76.07;45.17;;;0.30;99.90;;;;;;5077699;28;20044;-85
2023/12/06 00:56:37;;;;;;;80.75;46.63;;;1.80;99.90;;;;;;5077400;28;20048;-86
2023/12/06 00:59:04;;;;;;;75.60;45.40;;;0.90;99.90;;;;;;5078002;28;20067;-86
2023/12/06 01:01:30;;;;;;;78.55;44.78;;;1.50;99.90;;;;;;5077054;28;20135;-86
2023/12/06 01:03:57;;;;;;;80.63;48.05;;;0.20;99.90;;;;;;5094688;28;20442;-86
2023/12/06 01:06:23;;;;;;;79.43;47.55;;;0.50;99.90;;;;;;5060926;28;20051;-86
2023/12/06 01:08:49;;;;;;;83.80;47.30;;;0.40;99.90;;;;;;5077616;28;20047;-86
2023/12/06 01:11:15;;;;;;;82.77;48.33;;;0.30;99.90;;;;;;5094568;28;20510;-86
2023/12/06 01:13:40;;;;;;;79.30;46.20;;;1.80;99.90;;;;;;5060303;28;20152;-86
2023/12/06 01:16:07;;;;;;;86.57;48.50;;;0.30;99.90;;;;;;5060967;28;20048;-86
2023/12/06 01:18:33;;;;;;;86.18;48.15;;;0.30;99.90;;;;;;5076863;28;20043;-86
2023/12/06 01:20:59;;;;;;;81.85;48.17;;;0.80;99.90;;;;;;5093322;28;20068;-86
2023/12/06 01:23:25;;;;;;;80.33;45.77;;;0.30;99.90;;;;;;5093491;28;20084;-86
2023/12/06 01:25:50;;;;;;;81.73;46.90;;;0.30;99.90;;;;;;5077088;28;20036;-86
2023/12/06 01:28:16;;;;;;;83.50;46.97;;;1.10;99.90;;;;;;5094209;28;20094;-85
2023/12/06 01:30:42;;;;;;;86.87;48.83;;;1.50;99.90;;;;;;5093678;28;20040;-86
2023/12/06 01:33:07;;;;;;;91.60;49.47;;;0.30;99.90;;;;;;5077534;28;20076;-86
2023/12/06 01:35:33;;;;;;;84.30;46.77;;;1.80;99.90;;;;;;5076739;28;20473;-86
2023/12/06 01:37:59;;;;;;;83.23;47.37;;;0.30;99.90;;;;;;5094106;28;20032;-85
2023/12/06 01:40:25;;;;;;;89.37;48.73;;;0.70;99.90;;;;;;5093445;28;20050;-86
2023/12/06 01:42:50;;;;;;;86.60;49.23;;;0.30;99.90;;;;;;5077083;28;20044;-85
2023/12/06 01:45:16;;;;;;;89.33;47.90;;;1.80;99.90;;;;;;5060443;28;20047;-85
2023/12/06 01:47:43;;;;;;;85.90;48.20;;;1.50;99.90;;;;;;5076200;28;20510;-85
2023/12/06 01:50:11;;;;;;;87.47;49.58;;;0.30;99.90;;;;;;5076805;28;20434;-86
2023/12/06 01:52:37;;;;;;;87.28;48.88;;;1.10;99.90;;;;;;5093075;28;20079;-85
2023/12/06 01:55:03;;;;;;;90.73;50.77;;;1.70;99.90;;;;;;5077010;28;20083;-85
2023/12/06 01:57:30;;;;;;;87.90;45.57;;;0.30;99.90;;;;;;5076317;28;20087;-86
2023/12/06 01:59:56;;;;;;;88.22;49.65;;;1.80;99.90;;;;;;5076777;28;20282;-86
2023/12/06 02:02:23;;;;;;;90.55;50.33;;;1.80;99.90;;;;;;5059668;28;20102;-85
2023/12/06 02:04:48;;;;;;;85.80;48.03;;;1.80;99.90;;;;;;5076298;28;20055;-86
2023/12/06 02:07:16;;;;;;;84.80;49.70;;;0.40;99.90;;;;;;5093253;28;20044;-85
2023/12/06 02:09:41;;;;;;;83.50;46.67;;;0.40;99.90;;;;;;5059106;28;20036;-85
2023/12/06 02:12:07;;;;;;;97.90;54.60;;;0.40;99.90;;;;;;5076556;28;20046;-85
2023/12/06 02:14:35;;;;;;;93.97;49.43;;;0.30;99.90;;;;;;5092176;28;20044;-86
2023/12/06 02:17:05;;;;;;;102.15;53.47;;;1.10;99.90;;;;;;5093515;28;20445;-86
2023/12/06 02:19:31;;;;;;;92.20;53.33;;;0.90;99.90;;;;;;5075966;28;20391;-86
2023/12/06 02:21:58;;;;;;;80.00;46.63;;;1.60;99.90;;;;;;5093415;28;20074;-85
2023/12/06 02:24:30;;;;;;;99.78;50.05;;;1.70;99.90;;;;;;5093259;28;20055;-85
2023/12/06 02:26:56;;;;;;;91.90;50.03;;;1.70;99.90;;;;;;5093103;28;20101;-85
2023/12/06 02:29:24;;;;;;;88.50;47.63;;;1.50;99.90;;;;;;5042496;28;20055;-85
2023/12/06 02:31:50;;;;;;;89.70;48.33;;;1.80;99.90;;;;;;5075849;28;20040;-85
2023/12/06 02:34:20;;;;;;;88.10;47.78;;;1.50;99.90;;;;;;5075827;28;20047;-86
2023/12/06 02:36:49;;;;;;;86.43;47.28;;;1.60;99.90;;;;;;5075240;28;20052;-86
2023/12/06 02:39:17;;;;;;;90.50;47.85;;;0.90;99.90;;;;;;5092532;28;20492;-86
2023/12/06 02:41:43;;;;;;;85.95;47.92;;;1.00;99.90;;;;;;5075238;28;20040;-86
2023/12/06 02:44:09;;;;;;;81.82;46.20;;;1.50;99.90;;;;;;5092939;28;20051;-86
2023/12/06 02:46:36;;;;;;;86.17;45.33;;;0.40;99.90;;;;;;5075333;28;20044;-86
2023/12/06 02:49:02;;;;;;;81.57;47.00;;;1.80;99.90;;;;;;5092739;28;20047;-84
2023/12/06 02:51:28;;;;;;;80.93;46.55;;;1.10;99.90;;;;;;5075798;28;20051;-85
2023/12/06 02:53:54;;;;;;;87.97;47.03;;;0.30;99.90;;;;;;5092185;28;20056;-85
2023/12/06 02:56:20;;;;;;;81.03;45.57;;;0.40;99.90;;;;;;5092302;28;20051;-86
2023/12/06 02:58:45;;;;;;;79.70;43.90;;;-0.30;99.90;;;;;;5074788;28;20077;-86
2023/12/06 03:01:11;;;;;;;75.80;44.90;;;0.40;99.90;;;;;;5091796;28;20052;-85
2023/12/06 03:03:37;;;;;;;69.53;42.57;;;1.60;99.90;;;;;;5075066;28;20087;-86
2023/12/06 03:06:03;;;;;;;74.70;43.17;;;0.70;99.90;;;;;;5075528;28;20043;-86
2023/12/06 03:08:29;;;;;;;74.25;42.53;;;0.40;99.90;;;;;;5058376;28;20086;-85
2023/12/06 03:10:54;;;;;;;70.27;40.80;;;1.70;99.90;;;;;;5074223;28;20063;-86
2023/12/06 03:13:20;;;;;;;70.70;41.10;;;1.90;99.90;;;;;;5075401;28;20044;-86
2023/12/06 03:15:46;;;;;;;70.30;40.33;;;0.50;99.90;;;;;;5041838;28;20449;-86
2023/12/06 03:18:11;;;;;;;65.33;40.13;;;1.30;99.90;;;;;;5092243;28;20487;-86
2023/12/06 03:20:37;;;;;;;63.73;38.83;;;0.40;99.90;;;;;;5074650;28;20048;-86
2023/12/06 03:23:03;;;;;;;68.77;39.50;;;1.80;99.90;;;;;;5091722;28;20105;-86
2023/12/06 03:25:29;;;;;;;67.63;39.97;;;1.80;99.90;;;;;;5091737;28;20048;-86
2023/12/06 03:27:55;;;;;;;62.37;36.83;;;0.60;99.90;;;;;;5074804;28;20466;-86
2023/12/06 03:30:21;;;;;;;67.50;38.10;;;0.50;99.90;;;;;;5091490;28;20124;-85
2023/12/06 03:32:46;;;;;;;68.43;38.43;;;1.10;99.90;;;;;;5074581;28;20134;-86
2023/12/06 03:35:12;;;;;;;69.47;40.30;;;0.50;99.90;;;;;;5075242;28;20051;-86
2023/12/06 03:37:38;;;;;;;62.43;38.03;;;0.50;99.90;;;;;;5074722;28;20052;-86
2023/12/06 03:40:04;;;;;;;68.97;39.60;;;1.90;99.90;;;;;;5074796;28;20052;-85
2023/12/06 03:42:30;;;;;;;58.65;36.10;;;0.50;99.90;;;;;;5074709;28;20052;-86
2023/12/06 03:44:55;;;;;;;63.37;38.73;;;1.20;99.90;;;;;;5074276;28;20044;-86
2023/12/06 03:47:21;;;;;;;66.43;38.40;;;0.50;99.90;;;;;;5091894;28;20131;-86
2023/12/06 03:49:47;;;;;;;58.33;38.00;;;1.20;99.90;;;;;;5074412;28;20479;-86
2023/12/06 03:52:12;;;;;;;64.97;37.67;;;1.60;99.90;;;;;;5058300;28;20036;-86
2023/12/06 03:54:38;;;;;;;59.67;36.43;;;0.80;99.90;;;;;;5041672;28;20117;-86
2023/12/06 03:57:04;;;;;;;64.83;39.17;;;0.40;99.90;;;;;;5057225;28;20043;-86
2023/12/06 03:59:30;;;;;;;62.40;37.27;;;0.40;99.90;;;;;;5058259;28;20105;-86
2023/12/06 04:01:55;;;;;;;56.63;34.83;;;1.50;99.90;;;;;;5073697;28;20411;-86
2023/12/06 04:04:21;;;;;;;60.30;37.47;;;1.90;99.90;;;;;;5041705;28;20141;-86
2023/12/06 04:06:47;;;;;;;63.97;38.90;;;0.40;99.90;;;;;;5074267;28;20048;-86
2023/12/06 04:09:13;;;;;;;61.07;37.17;;;1.70;99.90;;;;;;5057907;28;20052;-85
2023/12/06 04:11:38;;;;;;;56.93;38.90;;;1.90;99.90;;;;;;5074472;28;20479;-86
2023/12/06 04:14:04;;;;;;;58.97;38.33;;;0.50;99.90;;;;;;5090937;28;20282;-86
2023/12/06 04:16:30;;;;;;;62.30;39.20;;;1.70;99.90;;;;;;5091366;28;20051;-86
2023/12/06 04:18:56;;;;;;;65.60;41.33;;;0.50;99.90;;;;;;5090762;28;20052;-86
2023/12/06 04:21:22;;;;;;;62.03;37.83;;;1.00;99.90;;;;;;5074288;28;20131;-86
2023/12/06 04:23:48;;;;;;;65.10;39.83;;;0.50;99.90;;;;;;5073979;28;20127;-86
2023/12/06 04:26:14;;;;;;;61.90;40.07;;;1.30;99.90;;;;;;5091513;28;20044;-86
2023/12/06 04:28:40;;;;;;;61.55;39.63;;;1.10;99.90;;;;;;5041325;28;20060;-85
2023/12/06 04:31:05;;;;;;;61.63;38.30;;;2.00;99.90;;;;;;5056984;28;20040;-85
2023/12/06 04:33:31;;;;;;;59.97;38.50;;;0.50;99.90;;;;;;5074480;28;20145;-85
2023/12/06 04:35:57;;;;;;;58.93;36.53;;;0.50;99.90;;;;;;5090514;28;20096;-86
2023/12/06 04:38:23;;;;;;;56.43;36.87;;;0.50;99.90;;;;;;5040715;28;20120;-85
2023/12/06 04:40:49;;;;;;;62.63;36.73;;;0.50;99.90;;;;;;5073938;28;20048;-86
2023/12/06 04:43:16;;;;;;;58.00;36.50;;;1.00;99.90;;;;;;5091550;28;20498;-86
2023/12/06 04:45:42;;;;;;;57.88;35.90;;;1.30;99.90;;;;;;5074403;28;20083;-85
2023/12/06 04:48:08;;;;;;;57.63;35.13;;;1.90;99.90;;;;;;5090385;28;20156;-86
2023/12/06 04:50:34;;;;;;;59.80;36.47;;;0.50;99.90;;;;;;5074371;28;20051;-86
2023/12/06 04:53:00;;;;;;;55.80;36.47;;;1.90;99.90;;;;;;5073095;28;20048;-86
2023/12/06 04:55:25;;;;;;;55.73;36.87;;;1.60;99.90;;;;;;5127388;27;20040;-86
2023/12/06 04:57:51;;;;;;;51.67;34.60;;;0.50;99.90;;;;;;5111470;28;20043;-86
2023/12/06 05:00:17;;;;;;;58.60;37.60;;;0.50;99.90;;;;;;5129119;27;20054;-85
2023/12/06 05:02:43;;;;;;;58.78;35.67;;;0.60;99.90;;;;;;5094113;28;20059;-85
2023/12/06 05:05:09;;;;;;;59.40;35.63;;;0.50;99.90;;;;;;5077303;28;20048;-85
2023/12/06 05:07:35;;;;;;;56.37;36.60;;;1.90;99.90;;;;;;5077600;28;20097;-85
2023/12/06 05:10:01;;;;;;;60.73;36.43;;;1.90;99.90;;;;;;5060422;28;20369;-86
2023/12/06 05:12:27;;;;;;;56.30;35.63;;;0.60;99.90;;;;;;5061059;28;20048;-85
2023/12/06 05:14:52;;;;;;;57.13;35.27;;;2.10;99.90;;;;;;5094043;28;20044;-85
2023/12/06 05:17:18;;;;;;;54.77;35.47;;;1.70;99.90;;;;;;5094483;28;20136;-85
2023/12/06 05:19:44;;;;;;;52.57;34.10;;;0.60;99.90;;;;;;5093559;28;20055;-85
2023/12/06 05:22:09;;;;;;;52.07;33.63;;;1.80;99.90;;;;;;5127279;27;20047;-85
2023/12/06 05:24:35;;;;;;;56.60;36.77;;;0.50;99.90;;;;;;5060920;28;20128;-85
2023/12/06 05:27:01;;;;;;;57.83;38.07;;;0.60;99.90;;;;;;5093773;28;20051;-86
2023/12/06 05:29:26;;;;;;;57.27;36.93;;;0.60;99.90;;;;;;5094141;28;20051;-85
2023/12/06 05:31:52;;;;;;;48.27;33.30;;;1.20;99.90;;;;;;5060337;28;20137;-87
2023/12/06 05:34:19;;;;;;;55.80;34.90;;;1.90;99.90;;;;;;5060597;28;20044;-86
2023/12/06 05:36:44;;;;;;;50.45;32.75;;;0.60;99.90;;;;;;5093434;28;20048;-85
2023/12/06 05:39:10;;;;;;;52.03;34.27;;;0.80;99.90;;;;;;5094549;28;20052;-86
2023/12/06 05:41:36;;;;;;;51.03;34.17;;;1.70;99.90;;;;;;5060621;28;20131;-85
2023/12/06 05:44:05;;;;;;;49.60;33.15;;;0.60;99.90;;;;;;5076719;28;20048;-85
2023/12/06 05:46:31;;;;;;;52.20;35.78;;;0.60;99.90;;;;;;5060691;28;20040;-85
2023/12/06 05:48:57;;;;;;;50.63;33.23;;;0.80;99.90;;;;;;5059208;28;20047;-86
2023/12/06 05:51:23;;;;;;;51.60;32.47;;;0.60;99.90;;;;;;5093685;28;20117;-85
2023/12/06 05:53:49;;;;;;;55.50;35.07;;;1.00;99.90;;;;;;5077097;28;20070;-85
2023/12/06 05:56:15;;;;;;;47.70;32.85;;;1.70;99.90;;;;;;5093350;28;20101;-85
2023/12/06 05:58:41;;;;;;;52.43;33.30;;;0.90;99.90;;;;;;5060185;28;20051;-85
2023/12/06 06:01:07;;;;;;;48.38;32.63;;;1.20;99.90;;;;;;5054869;28;20080;-85
2023/12/06 06:03:34;;;;;;;49.80;32.90;;;0.70;99.90;;;;;;5073600;28;20127;-85
2023/12/06 06:06:09;;;;;;;51.28;32.65;;;2.10;99.90;;;;;;5055803;28;20052;-86
2023/12/06 06:08:35;;;;;;;48.10;32.30;;;0.70;99.90;;;;;;5056728;28;20140;-85
2023/12/06 06:11:01;;;;;;;46.63;32.03;;;1.00;99.90;;;;;;5055855;28;20049;-86
2023/12/06 06:13:29;;;;;;;52.88;33.25;;;0.70;99.90;;;;;;5039743;28;20139;-85
2023/12/06 06:15:58;;;;;;;45.17;30.05;;;1.30;99.90;;;;;;5050568;28;20048;-85
2023/12/06 06:18:24;;;;;;;50.72;34.17;;;2.20;99.90;;;;;;5056405;28;20060;-86
2023/12/06 06:20:50;;;;;;;51.60;32.50;;;1.30;99.90;;;;;;5072928;28;20056;-85
2023/12/06 06:23:16;;;;;;;52.27;33.67;;;1.80;99.90;;;;;;5075437;28;20186;-85
2023/12/06 06:25:41;;;;;;;52.00;32.50;;;0.70;99.90;;;;;;5056150;28;20131;-85
2023/12/06 06:28:07;;;;;;;44.83;31.93;;;1.80;99.90;;;;;;5055727;28;20056;-85
2023/12/06 06:30:33;;;;;;;50.87;33.07;;;2.10;99.90;;;;;;5031251;28;20407;-85
2023/12/06 06:32:58;;;;;;;48.97;33.07;;;1.00;99.90;;;;;;5078343;28;20048;-86
2023/12/06 06:35:24;;;;;;;49.60;32.97;;;0.70;99.90;;;;;;5092464;28;20122;-85
2023/12/06 06:37:50;;;;;;;47.63;33.60;;;1.20;99.90;;;;;;5076146;28;20079;-85
2023/12/06 06:40:15;;;;;;;49.10;32.63;;;0.70;99.90;;;;;;5075423;28;20054;-85
2023/12/06 06:42:42;;;;;;;56.90;36.00;;;0.70;99.90;;;;;;5075884;28;20036;-85
2023/12/06 06:45:08;;;;;;;51.65;34.25;;;0.70;99.90;;;;;;5074533;28;20506;-85
2023/12/06 06:47:36;;;;;;;51.58;35.67;;;0.70;99.90;;;;;;5059195;28;20063;-85
2023/12/06 06:50:04;;;;;;;52.45;33.63;;;0.80;99.90;;;;;;5092031;28;20125;-86
2023/12/06 06:52:30;;;;;;;51.28;33.53;;;0.80;99.90;;;;;;5075652;28;20372;-85
2023/12/06 06:54:56;;;;;;;51.33;34.20;;;0.90;99.90;;;;;;5092303;28;20093;-85
2023/12/06 06:57:22;;;;;;;53.78;33.90;;;0.80;99.90;;;;;;5075122;28;20691;-85
2023/12/06 06:59:48;;;;;;;47.03;34.03;;;1.30;99.90;;;;;;5075729;28;20083;-85
2023/12/06 07:02:14;;;;;;;48.43;34.30;;;0.90;99.90;;;;;;5091641;28;20102;-85
2023/12/06 07:04:41;;;;;;;49.70;32.07;;;0.80;99.90;;;;;;5092481;28;20056;-85
2023/12/06 07:07:06;;;;;;;;;;;2.20;99.90;;;;;;5075269;28;20056;-85
2023/12/06 07:09:32;;;;;;;49.33;31.92;;;1.20;99.90;;;;;;5088519;28;19927;-85
2023/12/06 07:11:58;;;;;;;50.10;33.87;;;0.80;99.90;;;;;;5038491;28;20049;-85
2023/12/06 07:14:23;;;;;;;49.67;33.47;;;0.80;99.90;;;;;;5038855;28;20063;-85
2023/12/06 07:16:49;;;;;;;53.23;34.87;;;0.80;99.90;;;;;;5054691;28;20132;-85
2023/12/06 07:19:15;;;;;;;54.57;35.07;;;1.60;99.90;;;;;;5071293;28;20040;-85
2023/12/06 07:21:40;;;;;;;62.27;36.03;;;2.30;99.90;;;;;;5055473;28;20109;-85
2023/12/06 07:24:06;;;;;;;55.33;34.47;;;2.10;99.90;;;;;;5054774;28;20044;-87
2023/12/06 07:26:32;;;;;;;46.13;33.30;;;0.80;99.90;;;;;;5054903;28;20498;-86
2023/12/06 07:28:58;;;;;;;47.20;33.70;;;0.80;99.90;;;;;;5055376;28;20055;-86
2023/12/06 07:31:23;;;;;;;49.87;32.20;;;2.20;99.90;;;;;;5074238;28;20658;-86
2023/12/06 07:33:50;;;;;;;49.37;32.67;;;0.80;99.90;;;;;;5075112;28;20475;-85
2023/12/06 07:36:16;;;;;;;;;;;1.70;99.90;;;;;;5075049;28;20499;-86
2023/12/06 07:38:42;;;;;;;48.13;32.35;;;0.90;99.90;;;;;;5074667;28;19959;-86
2023/12/06 07:41:10;;;;;;;46.83;31.97;;;2.10;99.90;;;;;;5074621;28;20138;-89
2023/12/06 07:43:36;;;;;;;50.60;33.20;;;0.90;99.90;;;;;;5060931;28;20040;-89
2023/12/06 07:46:02;;;;;;;49.07;31.97;;;0.90;99.90;;;;;;5058412;28;20365;-89
2023/12/06 07:48:28;;;;;;;53.22;34.22;;;0.90;99.90;;;;;;5091541;28;20060;-89
2023/12/06 07:50:53;;;;;;;51.90;33.20;;;0.90;99.90;;;;;;5091751;28;20052;-89
2023/12/06 07:53:19;;;;;;;54.80;35.23;;;2.40;99.90;;;;;;5091286;28;20048;-91
2023/12/06 07:55:45;;;;;;;60.37;36.50;;;2.30;99.90;;;;;;5076553;28;20052;-89
2023/12/06 07:58:11;;;;;;;47.58;31.30;;;2.40;99.90;;;;;;5090537;28;20036;-88
2023/12/06 08:00:37;;;;;;;52.08;35.63;;;1.00;99.90;;;;;;5058739;28;20060;-88
2023/12/06 08:03:04;;;;;;;52.23;34.83;;;0.90;99.90;;;;;;5093588;28;20074;-88
2023/12/06 08:05:29;;;;;;;50.85;33.25;;;2.20;99.90;;;;;;5092496;28;20055;-89
2023/12/06 08:07:55;;;;;;;48.23;32.90;;;1.30;99.90;;;;;;5092299;28;20039;-87
2023/12/06 08:10:26;;;;;;;48.17;32.40;;;2.20;99.90;;;;;;5075230;28;20040;-87
2023/12/06 08:12:54;;;;;;;45.67;31.00;;;1.00;99.90;;;;;;5092726;28;20040;-87
2023/12/06 08:15:21;;;;;;;51.75;33.88;;;2.60;99.90;;;;;;5092034;28;20059;-87
2023/12/06 08:17:47;;;;;;;46.95;31.75;;;1.70;99.90;;;;;;5092565;28;20131;-87
2023/12/06 08:20:13;;;;;;;45.77;32.00;;;1.00;99.90;;;;;;5075302;28;20084;-87
2023/12/06 08:22:39;;;;;;;44.78;30.83;;;2.50;99.90;;;;;;5075609;28;20052;-86
2023/12/06 08:25:06;;;;;;;49.50;31.97;;;1.10;99.90;;;;;;5075413;28;20056;-88
2023/12/06 08:27:34;;;;;;;49.78;33.80;;;1.10;99.90;;;;;;5058163;28;20499;-88
2023/12/06 08:30:00;;;;;;;50.35;32.75;;;2.20;99.90;;;;;;5059596;28;20040;-86
2023/12/06 08:32:26;;;;;;;47.88;30.92;;;1.50;99.90;;;;;;5061097;28;20487;-87
2023/12/06 08:34:53;;;;;;;47.05;30.15;;;1.40;99.90;;;;;;5078865;28;20376;-87
2023/12/06 08:37:19;;;;;;;47.80;32.50;;;2.60;99.90;;;;;;5094732;28;20071;-88
2023/12/06 08:39:45;;;;;;;52.93;33.77;;;1.20;99.90;;;;;;5083234;28;20102;-87
2023/12/06 08:42:17;;;;;;;51.50;34.50;;;1.10;99.90;;;;;;5093383;28;20047;-87
2023/12/06 08:44:42;;;;;;;49.40;35.00;;;1.10;99.90;;;;;;5062084;28;20047;-87
2023/12/06 08:47:09;;;;;;;50.80;33.47;;;1.10;99.90;;;;;;5094182;28;20044;-87
2023/12/06 08:49:36;;;;;;;;;;;1.10;99.90;;;;;;5064541;28;20070;-87
2023/12/06 08:52:02;;;;;;;48.78;31.48;;;1.20;99.90;;;;;;5059546;28;19920;-88
2023/12/06 08:54:27;;;;;;;47.27;32.13;;;2.60;99.90;;;;;;5051797;28;20056;-88
2023/12/06 08:56:53;;;;;;;47.80;35.43;;;1.20;99.90;;;;;;5083613;28;20121;-88
2023/12/06 08:59:19;;;;;;;54.33;35.10;;;1.20;99.90;;;;;;5076596;28;20540;-87
2023/12/06 09:01:44;;;;;;;48.10;33.50;;;1.50;99.90;;;;;;5072662;28;20063;-87
2023/12/06 09:04:10;;;;;;;46.47;32.17;;;1.20;99.90;;;;;;5075911;28;20036;-87
2023/12/06 09:06:37;;;;;;;56.20;35.07;;;1.30;99.90;;;;;;5069306;28;20040;-87
2023/12/06 09:09:04;;;;;;;52.92;34.92;;;2.60;99.90;;;;;;5058195;28;20128;-87
2023/12/06 09:11:30;;;;;;;51.08;31.80;;;1.30;99.90;;;;;;5048804;28;20403;-88
2023/12/06 09:13:56;;;;;;;46.30;31.73;;;2.70;99.90;;;;;;5065565;28;20051;-87
2023/12/06 09:16:21;;;;;;;47.60;30.47;;;1.80;99.90;;;;;;5056324;28;20049;-87
2023/12/06 09:18:47;;;;;;;48.03;31.83;;;2.80;99.90;;;;;;5058784;28;20047;-88
2023/12/06 09:21:16;;;;;;;45.20;31.17;;;1.30;99.90;;;;;;5077201;28;20128;-91
2023/12/06 09:23:41;;;;;;;45.30;30.60;;;1.20;99.90;;;;;;5051429;28;20063;-89
2023/12/06 09:26:09;;;;;;;51.13;32.50;;;0.20;99.90;;;;;;5054237;28;20056;-90
2023/12/06 09:28:35;;;;;;;46.67;32.72;;;1.40;99.90;;;;;;5090581;28;20075;-91
2023/12/06 09:31:01;;;;;;;43.95;29.63;;;2.80;99.90;;;;;;5056487;28;20036;-91
2023/12/06 09:33:27;;;;;;;42.83;29.73;;;1.40;99.90;;;;;;5089334;28;20036;-91
2023/12/06 09:35:52;;;;;;;44.17;28.27;;;1.40;99.90;;;;;;5074254;28;20032;-92
2023/12/06 09:38:18;;;;;;;38.80;27.07;;;1.50;99.90;;;;;;5051958;28;20056;-92
2023/12/06 09:40:44;;;;;;;43.60;27.20;;;2.70;99.90;;;;;;5070968;28;20119;-91
2023/12/06 09:43:10;;;;;;;42.37;28.30;;;3.00;99.90;;;;;;5093166;28;20093;-91
2023/12/06 09:45:37;;;;;;;45.10;31.58;;;1.80;99.90;;;;;;5045381;28;20589;-92
2023/12/06 09:48:04;;;;;;;44.30;29.77;;;3.00;99.90;;;;;;5069655;28;20124;-90
2023/12/06 09:50:32;;;;;;;47.80;30.98;;;1.60;99.90;;;;;;5075901;28;20079;-94
2023/12/06 09:52:58;;;;;;;48.80;30.73;;;2.80;99.90;;;;;;5082607;28;20123;-91
2023/12/06 09:55:24;;;;;;;43.23;28.83;;;1.70;99.90;;;;;;5057075;28;20140;-91
2023/12/06 09:57:54;;;;;;;49.78;30.77;;;1.60;99.90;;;;;;5040688;28;20045;-92
2023/12/06 10:00:21;;;;;;;43.63;28.10;;;3.20;99.90;;;;;;5057015;28;20040;-91
2023/12/06 10:02:51;;;;;;;46.00;29.40;;;2.90;99.90;;;;;;5056051;28;20061;-90
2023/12/06 10:05:16;;;;;;;41.72;28.33;;;0.60;99.90;;;;;;5068645;28;20057;-92
2023/12/06 10:07:43;;;;;;;42.97;30.10;;;3.00;99.90;;;;;;5037350;28;20100;-90
2023/12/06 10:10:22;;;;;;;44.03;29.35;;;1.70;99.90;;;;;;5089241;28;20101;-94
2023/12/06 10:12:58;;;;;;;44.33;30.25;;;1.70;99.90;;;;;;5076960;28;20052;-94
2023/12/06 10:15:24;;;;;;;47.15;27.98;;;1.70;99.90;;;;;;5077688;28;20048;-95
2023/12/06 10:17:51;;;;;;;40.55;28.33;;;1.70;99.90;;;;;;5094399;28;20044;-94
2023/12/06 10:20:19;;;;;;;43.08;28.65;;;1.80;99.90;;;;;;5094552;28;20044;-94
2023/12/06 10:22:47;;;;;;;39.47;28.70;;;1.80;99.90;;;;;;5094127;28;20050;-95
2023/12/06 10:25:13;;;;;;;44.33;28.25;;;1.80;99.90;;;;;;5077898;28;20047;-94
2023/12/06 10:27:39;;;;;;;41.20;26.70;;;1.80;99.90;;;;;;5093994;28;20047;-94
2023/12/06 10:30:05;;;;;;;40.40;26.50;;;1.80;99.90;;;;;;5094476;28;20452;-94
2023/12/06 10:32:32;;;;;;;38.30;26.75;;;1.90;99.90;;;;;;5044034;28;20378;-93
2023/12/06 10:35:00;;;;;;;42.50;27.10;;;2.90;99.90;;;;;;5093975;28;20079;-94
2023/12/06 10:37:27;;;;;;;40.80;27.80;;;1.90;99.90;;;;;;5077316;28;20051;-94
2023/12/06 10:40:00;;;;;;;37.17;27.67;;;1.90;99.90;;;;;;5077428;28;20098;-94
2023/12/06 10:42:32;;;;;;;39.58;27.17;;;2.40;99.90;;;;;;5094177;28;20040;-94
2023/12/06 10:45:00;;;;;;;43.53;26.85;;;1.90;99.90;;;;;;5094114;28;20082;-94
2023/12/06 10:47:26;;;;;;;39.63;27.02;;;2.80;99.90;;;;;;5060597;28;20036;-94
2023/12/06 10:49:54;;;;;;;43.08;27.05;;;1.90;99.90;;;;;;5093550;28;20035;-94
2023/12/06 10:52:21;;;;;;;43.88;27.58;;;2.30;99.90;;;;;;5092899;28;20036;-93
2023/12/06 10:54:47;;;;;;;;;;;1.90;99.90;;;;;;5060779;28;20123;-94
2023/12/06 10:57:13;;;;;;;42.75;26.23;;;1.90;99.90;;;;;;5128000;27;19963;-94
2023/12/06 10:59:41;;;;;;;43.47;27.40;;;1.90;99.90;;;;;;5076339;28;20048;-94
2023/12/06 11:02:10;;;;;;;40.85;28.63;;;3.50;99.90;;;;;;5076664;28;20316;-94
2023/12/06 11:04:42;;;;;;;40.03;27.35;;;1.90;99.90;;;;;;5093682;28;20047;-94
2023/12/06 11:07:45;;;;;;;42.75;27.88;;;3.00;99.90;;;;;;5076853;28;20054;-94
2023/12/06 11:10:14;;;;;;;36.38;26.48;;;2.00;99.90;;;;;;5093484;28;20429;-94
2023/12/06 11:12:59;;;;;;;40.47;26.27;;;2.00;99.90;;;;;;5076317;28;20467;-94
2023/12/06 11:15:38;;;;;;;36.72;26.25;;;2.00;99.90;;;;;;5093646;28;20040;-94
2023/12/06 11:18:10;;;;;;;39.95;26.60;;;2.00;99.90;;;;;;5093655;28;20471;-94
2023/12/06 11:20:39;;;;;;;42.05;26.98;;;2.00;99.90;;;;;;5076197;28;20044;-93
2023/12/06 11:23:05;;;;;;;38.63;27.02;;;2.10;99.90;;;;;;5093504;28;20051;-94
2023/12/06 11:25:31;;;;;;;38.13;26.60;;;3.50;99.90;;;;;;5076718;28;20047;-94
2023/12/06 11:27:57;;;;;;;36.77;27.30;;;2.10;99.90;;;;;;5059463;28;20066;-94
2023/12/06 11:30:23;;;;;;;37.70;26.57;;;2.10;99.90;;;;;;5093086;28;20036;-94
2023/12/06 11:32:55;;;;;;;35.57;25.40;;;2.10;99.90;;;;;;5076228;28;20089;-93
2023/12/06 11:35:23;;;;;;;34.30;25.45;;;2.60;99.90;;;;;;5076233;28;20036;-94
2023/12/06 11:37:55;;;;;;;36.75;25.35;;;2.20;99.90;;;;;;5075695;28;20035;-94
2023/12/06 11:40:25;;;;;;;38.58;24.45;;;2.20;99.90;;;;;;5076254;28;20360;-93
2023/12/06 11:43:00;;;;;;;38.05;25.15;;;2.20;99.90;;;;;;5092976;28;20085;-94
2023/12/06 11:45:28;;;;;;;31.73;24.67;;;2.20;99.90;;;;;;5076136;28;20031;-93
2023/12/06 11:47:54;;;;;;;34.22;25.00;;;2.20;99.90;;;;;;5075591;28;20036;-93
2023/12/06 11:50:21;;;;;;;34.03;25.45;;;3.10;99.90;;;;;;5076033;28;20032;-94
2023/12/06 11:52:49;;;;;;;33.33;23.95;;;2.20;99.90;;;;;;5059330;28;20144;-91
2023/12/06 11:55:19;;;;;;;29.77;23.15;;;2.30;99.90;;;;;;5090355;28;20050;-90
2023/12/06 11:58:02;;;;;;;36.67;24.98;;;2.30;99.90;;;;;;5088799;28;20044;-90
2023/12/06 12:00:30;;;;;;;34.72;22.75;;;3.60;99.90;;;;;;5075381;28;20048;-90
2023/12/06 12:03:01;;;;;;;35.35;23.73;;;2.70;99.90;;;;;;5077535;28;20090;-93
2023/12/06 12:05:27;;;;;;;34.97;25.60;;;2.30;99.90;;;;;;5096724;28;20051;-92
2023/12/06 12:07:53;;;;;;;32.88;23.55;;;2.30;99.90;;;;;;5074875;28;20047;-94
2023/12/06 12:10:19;;;;;;;36.13;23.13;;;2.30;99.90;;;;;;5075013;28;20040;-91
2023/12/06 12:12:48;;;;;;;31.08;23.23;;;3.80;99.90;;;;;;5076256;28;20052;-88
2023/12/06 12:15:16;;;;;;;32.70;23.63;;;2.40;99.90;;;;;;5076860;28;20073;-87
2023/12/06 12:17:43;;;;;;;31.27;22.08;;;2.30;99.90;;;;;;5090929;28;20068;-88
2023/12/06 12:20:10;;;;;;;34.03;22.45;;;3.60;99.90;;;;;;5074593;28;20395;-89
2023/12/06 12:22:48;;;;;;;30.98;22.00;;;2.30;99.90;;;;;;5074587;28;20052;-88
2023/12/06 12:25:15;;;;;;;31.27;22.33;;;4.00;99.90;;;;;;5057800;28;20448;-89
2023/12/06 12:27:44;;;;;;;29.08;20.38;;;2.40;99.90;;;;;;5054436;28;20510;-88
2023/12/06 12:30:12;;;;;;;31.13;21.08;;;2.40;99.90;;;;;;5054381;28;20399;-88
2023/12/06 12:32:54;;;;;;;29.27;22.13;;;2.40;99.90;;;;;;5054513;28;20059;-88
2023/12/06 12:35:20;;;;;;;32.70;21.55;;;2.70;99.90;;;;;;5054694;28;20048;-88